createdAt,value
2018-07-22T00:01:48.283Z,95568.89
2018-07-22T00:04:16.837Z,95563.97
2018-07-22T00:06:46.396Z,95571.09
2018-07-22T00:09:15.052Z,95569.27
2018-07-22T00:11:43.803Z,95571.18
2018-07-22T00:14:12.396Z,95567.88
2018-07-22T00:16:40.971Z,95567.14
2018-07-22T00:19:09.692Z,95565.87
2018-07-22T00:21:38.275Z,95571.98
2018-07-22T00:24:06.913Z,95572.69
2018-07-22T00:26:35.576Z,95564.85
2018-07-22T00:29:04.275Z,95567.73
2018-07-22T00:31:32.824Z,95567.45
2018-07-22T00:34:01.489Z,95569.64
2018-07-22T00:36:30.060Z,95567.95
2018-07-22T00:38:58.717Z,95573.56
2018-07-22T00:41:27.868Z,95576.53
2018-07-22T00:43:56.543Z,95575.64
2018-07-22T00:46:25.189Z,95577.56
2018-07-22T00:48:54.031Z,95572.11
2018-07-22T00:51:22.776Z,95565.36
2018-07-22T00:53:51.340Z,95566.64
2018-07-22T00:56:19.979Z,95569.39
2018-07-22T00:58:49.088Z,95562.02
2018-07-22T01:01:18.559Z,95560.91
2018-07-22T01:03:47.198Z,95556.72
2018-07-22T01:06:16.180Z,95553.27
2018-07-22T01:08:44.853Z,95553.77
2018-07-22T01:11:14.863Z,95551.63
2018-07-22T01:13:43.931Z,95549.79
2018-07-22T01:16:12.886Z,95549.24
2018-07-22T01:18:41.589Z,95547.36
2018-07-22T01:21:10.564Z,95546.34
2018-07-22T01:23:39.365Z,95549.13
2018-07-22T01:26:09.389Z,95542.64
2018-07-22T01:28:38.172Z,95543.25
2018-07-22T01:31:06.916Z,95539.59
2018-07-22T01:33:35.502Z,95537.14
2018-07-22T01:36:04.092Z,95541.60
2018-07-22T01:38:32.668Z,95541.20
2018-07-22T01:41:01.242Z,95539.69
2018-07-22T01:43:30.008Z,95536.24
2018-07-22T01:45:58.664Z,95535.53
2018-07-22T01:48:27.282Z,95536.77
2018-07-22T01:50:55.838Z,95532.66
2018-07-22T01:53:24.456Z,95537.96
2018-07-22T01:55:53.051Z,95541.58
2018-07-22T01:58:21.673Z,95536.17
2018-07-22T02:00:50.528Z,95538.19
2018-07-22T02:03:19.094Z,95537.20
2018-07-22T02:05:51.614Z,95540.02
2018-07-22T02:08:21.077Z,95549.34
2018-07-22T02:10:49.986Z,95547.03
2018-07-22T02:13:18.924Z,95550.64
2018-07-22T02:15:47.667Z,95552.80
2018-07-22T02:18:16.268Z,95550.81
2018-07-22T02:20:44.825Z,95546.78
2018-07-22T02:23:14.445Z,95544.38
2018-07-22T02:25:42.998Z,95542.00
2018-07-22T02:28:11.620Z,95535.95
2018-07-22T02:30:40.191Z,95532.17
2018-07-22T02:33:08.816Z,95536.17
2018-07-22T02:35:37.561Z,95531.59
2018-07-22T02:38:06.133Z,95527.40
2018-07-22T02:40:34.876Z,95530.30
2018-07-22T02:43:03.441Z,95529.58
2018-07-22T02:45:32.014Z,95526.10
2018-07-22T02:48:00.591Z,95529.06
2018-07-22T02:50:29.202Z,95534.23
2018-07-22T02:52:57.809Z,95526.20
2018-07-22T02:55:26.406Z,95524.60
2018-07-22T02:57:55.019Z,95525.64
2018-07-22T03:00:23.627Z,95522.95
2018-07-22T03:02:52.179Z,95528.14
2018-07-22T03:05:21.066Z,95528.52
2018-07-22T03:07:49.605Z,95529.22
2018-07-22T03:10:18.355Z,95524.41
2018-07-22T03:12:46.906Z,95521.84
2018-07-22T03:15:16.755Z,95528.31
2018-07-22T03:17:45.313Z,95526.33
2018-07-22T03:20:13.872Z,95528.31
2018-07-22T03:22:42.470Z,95528.02
2018-07-22T03:25:11.289Z,95525.97
2018-07-22T03:27:40.019Z,95534.91
2018-07-22T03:30:08.620Z,95538.06
2018-07-22T03:32:37.259Z,95539.83
2018-07-22T03:35:05.961Z,95539.89
2018-07-22T03:37:34.581Z,95540.83
2018-07-22T03:40:03.215Z,95539.14
2018-07-22T03:42:31.773Z,95540.44
2018-07-22T03:45:00.392Z,95549.58
2018-07-22T03:47:29.012Z,95530.10
2018-07-22T03:49:57.587Z,95541.81
2018-07-22T03:52:26.171Z,95535.50
2018-07-22T03:54:54.741Z,95544.55
2018-07-22T03:57:23.629Z,95537.48
2018-07-22T03:59:52.221Z,95545.88
2018-07-22T04:02:21.977Z,95544.61
2018-07-22T04:04:50.533Z,95545.31
2018-07-22T04:07:20.766Z,95544.41
2018-07-22T04:09:49.341Z,95543.30
2018-07-22T04:12:18.032Z,95544.36
2018-07-22T04:14:46.626Z,95544.50
2018-07-22T04:17:15.763Z,95544.15
2018-07-22T04:19:44.530Z,95539.83
2018-07-22T04:22:13.100Z,95538.04
2018-07-22T04:24:41.696Z,95527.50
2018-07-22T04:27:10.344Z,95536.57
2018-07-22T04:29:38.950Z,95539.83
2018-07-22T04:32:07.533Z,95540.02
2018-07-22T04:34:36.110Z,95534.94
2018-07-22T04:37:04.902Z,95537.70
2018-07-22T04:39:33.468Z,95537.81
2018-07-22T04:42:02.057Z,95534.59
2018-07-22T04:44:30.637Z,95543.08
2018-07-22T04:46:59.203Z,95545.58
2018-07-22T04:49:27.872Z,95551.98
2018-07-22T04:51:56.460Z,95552.48
2018-07-22T04:54:25.307Z,95552.09
2018-07-22T04:56:53.862Z,95553.95
2018-07-22T04:59:22.528Z,95558.86
2018-07-22T05:01:51.172Z,95558.24
2018-07-22T05:04:19.745Z,95559.29
2018-07-22T05:06:48.364Z,95562.77
2018-07-22T05:09:18.522Z,95574.08
2018-07-22T05:11:47.120Z,95570.66
2018-07-22T05:14:15.817Z,95575.50
2018-07-22T05:16:44.408Z,95580.08
2018-07-22T05:19:16.416Z,95582.31
2018-07-22T05:21:45.153Z,95577.07
2018-07-22T05:24:13.802Z,95571.30
2018-07-22T05:26:42.433Z,95574.02
2018-07-22T05:29:15.009Z,95574.23
2018-07-22T05:31:43.566Z,95574.85
2018-07-22T05:34:12.205Z,95581.70
2018-07-22T05:36:40.799Z,95584.31
2018-07-22T05:39:11.573Z,95579.24
2018-07-22T05:41:40.627Z,95578.87
2018-07-22T05:44:09.225Z,95583.01
2018-07-22T05:46:37.982Z,95588.77
2018-07-22T05:49:06.620Z,95592.04
2018-07-22T05:51:35.237Z,95588.76
2018-07-22T05:54:03.946Z,95590.16
2018-07-22T05:56:32.492Z,95590.50
2018-07-22T05:59:01.110Z,95588.00
2018-07-22T06:01:29.681Z,95584.61
2018-07-22T06:03:58.242Z,95583.70
2018-07-22T06:06:27.856Z,95586.11
2018-07-22T06:08:56.456Z,95581.66
2018-07-22T06:11:25.024Z,95576.00
2018-07-22T06:13:53.609Z,95582.61
2018-07-22T06:16:22.277Z,95579.74
2018-07-22T06:18:50.884Z,95578.38
2018-07-22T06:21:19.433Z,95581.20
2018-07-22T06:23:48.032Z,95581.10
2018-07-22T06:26:16.621Z,95592.55
2018-07-22T06:28:45.282Z,95580.08
2018-07-22T06:31:13.988Z,95589.78
2018-07-22T06:33:42.547Z,95583.89
2018-07-22T06:36:11.104Z,95583.42
2018-07-22T06:38:39.660Z,95588.83
2018-07-22T06:41:08.357Z,95586.93
2018-07-22T06:43:36.953Z,95589.05
2018-07-22T06:46:05.556Z,95597.01
2018-07-22T06:48:34.121Z,95594.30
2018-07-22T06:51:02.696Z,95596.44
2018-07-22T06:53:31.439Z,95591.20
2018-07-22T06:56:00.000Z,95592.80
2018-07-22T06:58:28.589Z,95596.57
2018-07-22T07:00:57.193Z,95594.77
2018-07-22T07:03:26.032Z,95594.06
2018-07-22T07:05:54.765Z,95596.48
2018-07-22T07:08:23.461Z,95594.30
2018-07-22T07:10:52.263Z,95592.27
2018-07-22T07:13:20.796Z,95589.31
2018-07-22T07:15:49.430Z,95588.06
2018-07-22T07:18:18.000Z,95585.79
2018-07-22T07:20:46.599Z,95590.54
2018-07-22T07:23:15.984Z,95582.98
2018-07-22T07:25:44.613Z,95588.03
2018-07-22T07:28:13.176Z,95587.89
2018-07-22T07:30:41.957Z,95589.21
2018-07-22T07:33:12.228Z,95583.37
2018-07-22T07:35:41.029Z,95587.16
2018-07-22T07:38:09.640Z,95579.47
2018-07-22T07:40:38.524Z,95584.52
2018-07-22T07:43:07.328Z,95583.35
2018-07-22T07:45:36.150Z,95580.13
2018-07-22T07:48:04.940Z,95582.11
2018-07-22T07:53:23.692Z,95586.30
2018-07-22T07:55:52.255Z,95582.53
2018-07-22T07:58:20.905Z,95589.00
2018-07-22T08:00:49.463Z,95588.89
2018-07-22T08:03:18.876Z,95589.84
2018-07-22T08:05:48.297Z,95586.84
2018-07-22T08:08:16.869Z,95592.27
2018-07-22T08:10:45.457Z,95593.17
2018-07-22T08:13:14.953Z,95593.79
2018-07-22T08:15:43.596Z,95598.53
2018-07-22T08:18:12.361Z,95600.86
2018-07-22T08:20:41.627Z,95605.56
2018-07-22T08:23:10.992Z,95601.14
2018-07-22T08:25:39.727Z,95605.21
2018-07-22T08:28:08.497Z,95604.45
2018-07-22T08:30:37.141Z,95605.07
2018-07-22T08:33:05.872Z,95606.47
2018-07-22T08:35:34.432Z,95604.67
2018-07-22T08:38:03.007Z,95608.88
2018-07-22T08:40:31.631Z,95607.03
2018-07-22T08:43:00.468Z,95614.94
2018-07-22T08:45:29.066Z,95619.42
2018-07-22T08:47:57.671Z,95616.88
2018-07-22T08:50:26.328Z,95621.45
2018-07-22T08:52:54.890Z,95620.31
2018-07-22T08:55:23.447Z,95623.20
2018-07-22T08:57:52.138Z,95626.97
2018-07-22T09:00:20.743Z,95628.16
2018-07-22T09:02:49.304Z,95635.50
2018-07-22T09:05:18.015Z,95636.36
2018-07-22T09:07:46.788Z,95636.85
2018-07-22T09:10:15.416Z,95632.16
2018-07-22T09:12:43.988Z,95628.99
2018-07-22T09:15:12.685Z,95635.71
2018-07-22T09:17:41.303Z,95631.31
2018-07-22T09:20:09.913Z,95631.77
2018-07-22T09:22:38.700Z,95630.77
2018-07-22T09:25:10.889Z,95637.70
2018-07-22T09:27:39.459Z,95642.06
2018-07-22T09:30:08.422Z,95637.31
2018-07-22T09:32:37.264Z,95639.13
2018-07-22T09:35:06.001Z,95643.13
2018-07-22T09:37:35.257Z,95646.38
2018-07-22T09:40:03.975Z,95650.33
2018-07-22T09:42:32.752Z,95652.67
2018-07-22T09:45:01.349Z,95652.89
2018-07-22T09:47:30.014Z,95651.77
2018-07-22T09:49:58.652Z,95647.22
2018-07-22T09:52:27.288Z,95653.76
2018-07-22T09:54:55.845Z,95653.98
2018-07-22T09:57:24.594Z,95651.59
2018-07-22T09:59:53.309Z,95654.31
2018-07-22T10:02:22.783Z,95658.66
2018-07-22T10:04:51.408Z,95657.55
2018-07-22T10:07:20.065Z,95660.88
2018-07-22T10:09:48.651Z,95659.28
2018-07-22T10:12:17.202Z,95664.79
2018-07-22T10:14:46.114Z,95664.28
2018-07-22T10:17:14.636Z,95658.32
2018-07-22T10:19:43.788Z,95661.14
2018-07-22T10:22:12.472Z,95660.08
2018-07-22T10:24:41.069Z,95655.16
2018-07-22T10:27:09.720Z,95661.09
2018-07-22T10:29:38.480Z,95662.68
2018-07-22T10:32:07.577Z,95669.32
2018-07-22T10:34:36.246Z,95669.83
2018-07-22T10:37:04.869Z,95670.63
2018-07-22T10:39:33.473Z,95668.52
2018-07-22T10:42:02.055Z,95674.22
2018-07-22T10:44:30.613Z,95668.26
2018-07-22T10:46:59.345Z,95674.01
2018-07-22T10:49:27.900Z,95663.86
2018-07-22T10:51:56.490Z,95672.58
2018-07-22T10:54:25.154Z,95673.05
2018-07-22T10:56:53.778Z,95671.45
2018-07-22T10:59:22.452Z,95674.50
2018-07-22T11:01:51.324Z,95677.63
2018-07-22T11:04:20.074Z,95679.95
2018-07-22T11:06:48.658Z,95683.20
2018-07-22T11:09:17.246Z,95681.97
2018-07-22T11:11:46.029Z,95682.74
2018-07-22T11:14:14.645Z,95681.24
2018-07-22T11:16:43.288Z,95685.48
2018-07-22T11:19:11.909Z,95684.80
2018-07-22T11:21:40.450Z,95686.39
2018-07-22T11:24:09.124Z,95687.81
2018-07-22T11:26:38.407Z,95687.77
2018-07-22T11:29:07.090Z,95693.23
2018-07-22T11:31:35.658Z,95688.94
2018-07-22T11:34:04.299Z,95687.54
2018-07-22T11:36:32.942Z,95688.91
2018-07-22T11:39:01.629Z,95684.34
2018-07-22T11:41:30.650Z,95685.00
2018-07-22T11:43:59.261Z,95683.50
2018-07-22T11:46:27.956Z,95685.88
2018-07-22T11:48:56.623Z,95684.12
2018-07-22T11:51:25.295Z,95686.10
2018-07-22T11:53:53.925Z,95686.20
2018-07-22T11:56:22.740Z,95685.38
2018-07-22T11:58:51.325Z,95688.06
2018-07-22T12:01:20.274Z,95682.52
2018-07-22T12:03:48.900Z,95682.03
2018-07-22T12:06:18.447Z,95686.59
2018-07-22T12:08:47.041Z,95683.17
2018-07-22T12:11:16.724Z,95690.70
2018-07-22T12:13:45.312Z,95697.37
2018-07-22T12:16:13.921Z,95697.80
2018-07-22T12:18:42.641Z,95696.00
2018-07-22T12:21:11.572Z,95697.75
2018-07-22T12:23:40.139Z,95701.02
2018-07-22T12:26:08.809Z,95692.78
2018-07-22T12:28:37.417Z,95698.46
2018-07-22T12:31:06.008Z,95703.24
2018-07-22T12:33:34.788Z,95698.02
2018-07-22T12:36:03.547Z,95703.17
2018-07-22T12:38:32.187Z,95698.06
2018-07-22T12:41:00.973Z,95700.73
2018-07-22T12:43:29.619Z,95698.36
2018-07-22T12:45:58.211Z,95704.39
2018-07-22T12:48:26.820Z,95706.92
2018-07-22T12:50:55.384Z,95711.88
2018-07-22T12:53:23.957Z,95714.95
2018-07-22T12:55:52.572Z,95712.02
2018-07-22T12:58:21.382Z,95705.34
2018-07-22T13:00:50.319Z,95708.41
2018-07-22T13:03:19.091Z,95710.31
2018-07-22T13:05:47.660Z,95713.66
2018-07-22T13:08:16.224Z,95707.78
2018-07-22T13:10:44.944Z,95714.84
2018-07-22T13:13:13.772Z,95707.77
2018-07-22T13:15:42.409Z,95710.97
2018-07-22T13:18:11.005Z,95707.53
2018-07-22T13:20:39.591Z,95706.44
2018-07-22T13:23:09.089Z,95705.66
2018-07-22T13:25:38.076Z,95706.19
2018-07-22T13:28:06.875Z,95701.97
2018-07-22T13:30:35.515Z,95704.83
2018-07-22T13:33:04.188Z,95706.91
2018-07-22T13:35:33.372Z,95714.24
2018-07-22T13:38:02.045Z,95718.83
2018-07-22T13:40:31.177Z,95715.77
2018-07-22T13:42:59.845Z,95716.47
2018-07-22T13:45:28.859Z,95720.36
2018-07-22T13:47:57.583Z,95718.51
2018-07-22T13:50:26.462Z,95714.80
2018-07-22T13:52:55.124Z,95718.12
2018-07-22T13:55:23.726Z,95717.95
2018-07-22T13:57:52.373Z,95716.84
2018-07-22T14:00:21.019Z,95720.62
2018-07-22T14:02:49.803Z,95715.89
2018-07-22T14:05:18.673Z,95712.55
2018-07-22T14:07:47.452Z,95715.13
2018-07-22T14:10:16.057Z,95713.81
2018-07-22T14:12:44.674Z,95721.80
2018-07-22T14:15:13.351Z,95720.73
2018-07-22T14:17:42.317Z,95719.63
2018-07-22T14:20:10.890Z,95721.92
2018-07-22T14:22:39.595Z,95719.53
2018-07-22T14:25:08.247Z,95724.33
2018-07-22T14:27:36.851Z,95717.53
2018-07-22T14:30:06.020Z,95718.94
2018-07-22T14:32:35.031Z,95725.51
2018-07-22T14:35:03.761Z,95722.28
2018-07-22T14:37:32.306Z,95729.64
2018-07-22T14:40:01.037Z,95722.61
2018-07-22T14:42:29.684Z,95720.82
2018-07-22T14:44:58.285Z,95723.45
2018-07-22T14:47:26.924Z,95730.33
2018-07-22T14:49:55.529Z,95730.95
2018-07-22T14:52:24.208Z,95737.53
2018-07-22T14:54:52.764Z,95741.11
2018-07-22T14:57:21.816Z,95742.88
2018-07-22T14:59:50.388Z,95751.05
2018-07-22T15:02:19.084Z,95752.77
2018-07-22T15:04:47.698Z,95752.41
2018-07-22T15:07:17.031Z,95757.78
2018-07-22T15:09:45.735Z,95760.16
2018-07-22T15:12:14.495Z,95761.07
2018-07-22T15:14:43.092Z,95765.30
2018-07-22T15:17:12.264Z,95765.70
2018-07-22T15:19:40.817Z,95767.59
2018-07-22T15:22:09.440Z,95760.72
2018-07-22T15:24:38.112Z,95756.61
2018-07-22T15:27:06.713Z,95754.47
2018-07-22T15:29:35.371Z,95753.32
2018-07-22T15:32:04.581Z,95749.13
2018-07-22T15:34:33.272Z,95749.41
2018-07-22T15:37:01.841Z,95739.81
2018-07-22T15:39:30.469Z,95743.33
2018-07-22T15:41:59.055Z,95741.80
2018-07-22T15:44:27.600Z,95743.14
2018-07-22T15:46:56.161Z,95740.11
2018-07-22T15:49:25.164Z,95740.15
2018-07-22T15:51:53.740Z,95747.00
2018-07-22T15:54:22.271Z,95743.62
2018-07-22T15:56:51.105Z,95740.28
2018-07-22T15:59:20.512Z,95745.92
2018-07-22T16:01:49.165Z,95746.67
2018-07-22T16:04:17.748Z,95751.17
2018-07-22T16:06:47.288Z,95750.75
2018-07-22T16:09:15.953Z,95759.91
2018-07-22T16:11:44.517Z,95764.11
2018-07-22T16:14:13.213Z,95767.50
2018-07-22T16:16:42.063Z,95766.29
2018-07-22T16:19:10.782Z,95765.96
2018-07-22T16:21:40.167Z,95772.97
2018-07-22T16:24:08.813Z,95775.84
2018-07-22T16:26:37.515Z,95771.44
2018-07-22T16:29:06.178Z,95775.94
2018-07-22T16:31:34.920Z,95780.63
2018-07-22T16:34:03.546Z,95778.41
2018-07-22T16:36:32.128Z,95782.12
2018-07-22T16:39:00.744Z,95789.21
2018-07-22T16:41:29.327Z,95787.64
2018-07-22T16:43:57.944Z,95784.41
2018-07-22T16:46:26.524Z,95795.05
2018-07-22T16:48:55.171Z,95800.57
2018-07-22T16:51:24.135Z,95797.97
2018-07-22T16:53:53.112Z,95793.94
2018-07-22T16:56:22.289Z,95798.91
2018-07-22T16:58:50.949Z,95798.44
2018-07-22T17:01:19.922Z,95806.50
2018-07-22T17:03:48.476Z,95804.58
2018-07-22T17:06:17.042Z,95800.24
2018-07-22T17:08:45.593Z,95797.40
2018-07-22T17:11:14.383Z,95794.93
2018-07-22T17:13:42.927Z,95793.00
2018-07-22T17:16:11.540Z,95793.00
2018-07-22T17:18:40.094Z,95792.43
2018-07-22T17:21:08.681Z,95790.39
2018-07-22T17:23:37.335Z,95789.33
2018-07-22T17:26:05.943Z,95791.22
2018-07-22T17:28:34.515Z,95786.20
2018-07-22T17:31:03.113Z,95791.84
2018-07-22T17:33:31.785Z,95787.38
2018-07-22T17:36:00.357Z,95796.55
2018-07-22T17:38:28.916Z,95796.09
2018-07-22T17:40:57.505Z,95798.76
2018-07-22T17:43:26.321Z,95796.50
2018-07-22T17:45:54.917Z,95790.86
2018-07-22T17:48:23.576Z,95796.27
2018-07-22T17:50:52.108Z,95794.48
2018-07-22T17:53:20.663Z,95794.20
2018-07-22T17:55:49.340Z,95800.69
2018-07-22T17:58:18.001Z,95804.82
2018-07-22T18:00:46.809Z,95806.22
2018-07-22T18:03:24.936Z,95808.92
2018-07-22T18:05:56.194Z,95798.36
2018-07-22T18:08:25.031Z,95793.98
2018-07-22T18:10:54.235Z,95800.44
2018-07-22T18:13:22.879Z,95801.31
2018-07-22T18:15:51.532Z,95805.54
2018-07-22T18:18:20.373Z,95806.66
2018-07-22T18:20:49.576Z,95806.76
2018-07-22T18:23:18.175Z,95811.62
2018-07-22T18:25:47.341Z,95811.23
2018-07-22T18:28:16.404Z,95806.84
2018-07-22T18:30:45.455Z,95809.26
2018-07-22T18:33:14.074Z,95805.45
2018-07-22T18:35:42.677Z,95806.33
2018-07-22T18:38:11.268Z,95807.91
2018-07-22T18:40:39.848Z,95801.69
2018-07-22T18:43:08.743Z,95798.22
2018-07-22T18:45:37.353Z,95804.92
2018-07-22T18:48:05.968Z,95799.58
2018-07-22T18:50:35.507Z,95801.74
2018-07-22T18:53:04.297Z,95802.61
2018-07-22T18:55:32.971Z,95806.22
2018-07-22T18:58:01.536Z,95813.55
2018-07-22T19:00:30.177Z,95807.95
2018-07-22T19:02:58.793Z,95815.28
2018-07-22T19:05:28.166Z,95801.64
2018-07-22T19:07:56.840Z,95814.47
2018-07-22T19:10:25.589Z,95817.92
2018-07-22T19:12:54.143Z,95822.05
2018-07-22T19:15:22.691Z,95817.94
2018-07-22T19:17:51.296Z,95829.16
2018-07-22T19:20:19.875Z,95826.77
2018-07-22T19:22:48.470Z,95828.00
2018-07-22T19:25:17.045Z,95829.83
2018-07-22T19:27:45.588Z,95828.45
2018-07-22T19:30:14.248Z,95829.86
2018-07-22T19:32:42.861Z,95831.09
2018-07-22T19:35:11.594Z,95830.93
2018-07-22T19:37:40.213Z,95831.11
2018-07-22T19:40:08.856Z,95835.50
2018-07-22T19:42:37.467Z,95832.23
2018-07-22T19:45:06.084Z,95838.31
2018-07-22T19:47:34.645Z,95839.25
2018-07-22T19:50:03.323Z,95833.55
2018-07-22T19:52:31.938Z,95836.02
2018-07-22T19:55:00.563Z,95835.09
2018-07-22T19:57:29.113Z,95835.16
2018-07-22T19:59:57.716Z,95834.98
2018-07-22T20:02:27.150Z,95832.60
2018-07-22T20:04:56.764Z,95834.16
2018-07-22T20:07:26.974Z,95827.95
2018-07-22T20:09:55.571Z,95829.59
2018-07-22T20:12:24.121Z,95819.36
2018-07-22T20:14:52.727Z,95822.96
2018-07-22T20:17:21.456Z,95826.98
2018-07-22T20:19:50.044Z,95827.09
2018-07-22T20:22:18.888Z,95825.35
2018-07-22T20:24:47.452Z,95834.06
2018-07-22T20:27:16.034Z,95833.05
2018-07-22T20:29:44.580Z,95838.97
2018-07-22T20:32:13.369Z,95836.11
2018-07-22T20:34:42.238Z,95841.79
2018-07-22T20:37:10.957Z,95844.95
2018-07-22T20:39:39.571Z,95847.19
2018-07-22T20:42:08.830Z,95853.31
2018-07-22T20:44:37.401Z,95860.91
2018-07-22T20:47:06.166Z,95857.88
2018-07-22T20:49:34.689Z,95860.40
2018-07-22T20:52:03.285Z,95860.36
2018-07-22T20:54:31.919Z,95859.62
2018-07-22T20:57:00.472Z,95857.45
2018-07-22T20:59:29.076Z,95858.69
2018-07-22T21:01:57.665Z,95851.33
2018-07-22T21:04:26.300Z,95854.67
2018-07-22T21:06:54.887Z,95856.89
2018-07-22T21:09:23.451Z,95854.63
2018-07-22T21:13:01.312Z,95855.83
2018-07-22T21:15:30.320Z,95857.73
2018-07-22T21:17:58.889Z,95866.09
2018-07-22T21:20:28.523Z,95867.98
2018-07-22T21:22:57.272Z,95872.81
2018-07-22T21:25:26.358Z,95881.43
2018-07-22T21:27:54.971Z,95881.09
2018-07-22T21:30:23.587Z,95887.08
2018-07-22T21:32:52.143Z,95894.84
2018-07-22T21:35:21.151Z,95899.20
2018-07-22T21:37:49.767Z,95891.39
2018-07-22T21:40:18.351Z,95891.47
2018-07-22T21:42:47.112Z,95896.04
2018-07-22T21:45:15.749Z,95884.52
2018-07-22T21:47:44.318Z,95891.77
2018-07-22T21:50:12.940Z,95891.66
2018-07-22T21:52:41.636Z,95892.35
2018-07-22T21:55:10.237Z,95889.75
2018-07-22T21:57:38.936Z,95894.77
2018-07-22T22:00:30.555Z,95895.33
2018-07-22T22:02:59.993Z,95901.80
2018-07-22T22:05:29.352Z,95898.83
2018-07-22T22:07:58.744Z,95901.80
2018-07-22T22:10:27.873Z,95896.27
2018-07-22T22:12:56.820Z,95888.23
2018-07-22T22:15:27.363Z,95891.32
2018-07-22T22:18:01.284Z,95894.55
2018-07-22T22:20:30.100Z,95896.62
2018-07-22T22:22:58.735Z,95899.75
2018-07-22T22:25:27.302Z,95893.88
2018-07-22T22:27:55.899Z,95894.52
2018-07-22T22:30:24.531Z,95900.38
2018-07-22T22:32:53.084Z,95906.45
2018-07-22T22:35:21.722Z,95895.55
2018-07-22T22:37:50.620Z,95896.81
2018-07-22T22:40:19.222Z,95900.02
2018-07-22T22:42:48.187Z,95898.20
2018-07-22T22:45:16.877Z,95891.51
2018-07-22T22:47:45.823Z,95897.56
2018-07-22T22:50:14.447Z,95888.75
2018-07-22T22:52:43.623Z,95886.59
2018-07-22T22:55:13.757Z,95895.03
2018-07-22T22:57:52.229Z,95891.58
2018-07-22T23:00:20.930Z,95895.11
2018-07-22T23:02:49.515Z,95891.39
2018-07-22T23:05:18.415Z,95899.79
2018-07-22T23:07:47.076Z,95894.77
2018-07-22T23:10:15.744Z,95897.30
2018-07-22T23:12:44.372Z,95898.60
2018-07-22T23:15:13.024Z,95902.02
2018-07-22T23:17:41.643Z,95899.72
2018-07-22T23:20:10.286Z,95899.05
2018-07-22T23:22:38.806Z,95901.53
2018-07-22T23:25:07.419Z,95900.16
2018-07-22T23:27:35.980Z,95898.30
2018-07-22T23:30:04.583Z,95899.64
2018-07-22T23:32:33.279Z,95899.45
2018-07-22T23:35:01.969Z,95895.73
2018-07-22T23:37:30.572Z,95897.84
2018-07-22T23:39:59.131Z,95898.99
2018-07-22T23:42:27.819Z,95893.73
2018-07-22T23:44:56.356Z,95895.98
2018-07-22T23:47:24.984Z,95895.98
2018-07-22T23:49:53.547Z,95897.24
2018-07-22T23:52:22.091Z,95888.00
2018-07-22T23:54:50.699Z,95890.56
